createdAt,value
2018-03-27T00:02:24.848Z,20.53
2018-03-27T00:04:52.489Z,24.23
2018-03-27T00:07:20.874Z,21.43
2018-03-27T00:09:48.491Z,22.67
2018-03-27T00:12:16.120Z,22.93
2018-03-27T00:14:44.508Z,23.70
2018-03-27T00:17:12.145Z,21.27
2018-03-27T00:19:39.773Z,27.20
2018-03-27T00:22:07.401Z,23.33
2018-03-27T00:24:41.320Z,28.20
2018-03-27T00:27:08.453Z,22.00
2018-03-27T00:29:48.778Z,22.17
2018-03-27T00:32:28.328Z,27.03
2018-03-27T00:35:07.728Z,22.73
2018-03-27T00:37:47.327Z,21.90
2018-03-27T00:40:26.869Z,26.23
2018-03-27T00:42:56.324Z,23.97
2018-03-27T00:45:23.952Z,27.93
2018-03-27T00:47:51.638Z,26.30
2018-03-27T00:50:19.212Z,24.07
2018-03-27T00:52:46.846Z,29.47
2018-03-27T00:55:15.234Z,26.37
2018-03-27T00:57:42.847Z,26.30
2018-03-27T01:00:10.707Z,22.30
2018-03-27T01:02:38.360Z,23.13
2018-03-27T01:05:05.989Z,24.63
2018-03-27T01:07:33.608Z,26.20
2018-03-27T01:10:01.241Z,23.97
2018-03-27T01:12:28.864Z,29.13
2018-03-27T01:14:57.246Z,26.77
2018-03-27T01:17:25.633Z,25.83
2018-03-27T01:19:53.251Z,25.37
2018-03-27T01:22:20.881Z,24.37
2018-03-27T01:24:49.272Z,24.23
2018-03-27T01:27:16.901Z,26.70
2018-03-27T01:29:44.534Z,27.50
2018-03-27T01:32:12.162Z,27.03
2018-03-27T01:34:40.567Z,25.33
2018-03-27T01:37:08.186Z,27.70
2018-03-27T01:39:35.804Z,29.90
2018-03-27T01:42:03.420Z,28.30
2018-03-27T01:44:31.058Z,32.27
2018-03-27T01:46:58.686Z,35.87
2018-03-27T01:49:26.308Z,34.07
2018-03-27T01:51:53.924Z,30.80
2018-03-27T01:54:21.573Z,34.47
2018-03-27T01:56:49.183Z,32.27
2018-03-27T01:59:16.821Z,32.03
2018-03-27T02:01:44.437Z,34.07
2018-03-27T02:04:12.068Z,37.07
2018-03-27T02:06:39.692Z,31.57
2018-03-27T02:09:07.312Z,36.80
2018-03-27T02:11:34.954Z,35.07
2018-03-27T02:14:02.569Z,40.57
2018-03-27T02:16:30.202Z,36.80
2018-03-27T02:18:57.821Z,34.13
2018-03-27T02:21:26.209Z,36.80
2018-03-27T02:23:54.593Z,40.33
2018-03-27T02:26:22.985Z,37.17
2018-03-27T02:28:50.604Z,40.43
2018-03-27T02:31:18.234Z,41.97
2018-03-27T02:33:45.845Z,46.53
2018-03-27T02:36:13.468Z,49.17
2018-03-27T02:38:41.089Z,51.80
2018-03-27T02:41:08.720Z,52.33
2018-03-27T02:43:36.336Z,51.03
2018-03-27T02:46:04.729Z,53.30
2018-03-27T02:48:32.376Z,56.93
2018-03-27T02:51:00.002Z,54.20
2018-03-27T02:53:27.627Z,56.70
2018-03-27T02:55:55.249Z,51.20
2018-03-27T02:58:22.872Z,53.73
2018-03-27T03:00:50.712Z,57.60
2018-03-27T03:03:18.298Z,60.03
2018-03-27T03:05:45.930Z,69.30
2018-03-27T03:08:13.549Z,60.13
2018-03-27T03:10:41.170Z,62.43
2018-03-27T03:13:08.787Z,61.17
2018-03-27T03:15:36.409Z,64.70
2018-03-27T03:18:04.016Z,62.77
2018-03-27T03:20:31.639Z,68.57
2018-03-27T03:22:59.261Z,65.27
2018-03-27T03:25:26.882Z,74.27
2018-03-27T03:27:55.273Z,73.17
2018-03-27T03:30:30.945Z,65.17
2018-03-27T03:32:58.578Z,68.40
2018-03-27T03:35:26.968Z,76.07
2018-03-27T03:37:54.593Z,73.87
2018-03-27T03:40:22.215Z,73.77
2018-03-27T03:42:49.835Z,82.57
2018-03-27T03:45:17.453Z,84.43
2018-03-27T03:47:45.076Z,70.03
2018-03-27T03:50:12.701Z,79.80
2018-03-27T03:52:40.326Z,80.40
2018-03-27T03:55:08.713Z,64.13
2018-03-27T03:57:36.336Z,99.70
2018-03-27T04:00:03.971Z,86.60
2018-03-27T04:02:31.592Z,75.60
2018-03-27T04:04:59.989Z,86.23
2018-03-27T04:07:28.377Z,62.43
2018-03-27T04:09:55.999Z,81.43
2018-03-27T04:12:23.628Z,50.30
2018-03-27T04:14:51.249Z,63.27
2018-03-27T04:17:31.180Z,72.57
2018-03-27T04:19:58.805Z,76.47
2018-03-27T04:22:26.438Z,74.73
2018-03-27T04:24:54.057Z,83.63
2018-03-27T04:27:21.679Z,91.17
2018-03-27T04:29:50.149Z,88.20
2018-03-27T04:32:17.772Z,110.30
2018-03-27T04:34:45.400Z,102.03
2018-03-27T04:37:13.024Z,96.30
2018-03-27T04:39:40.655Z,111.87
2018-03-27T04:42:08.289Z,100.63
2018-03-27T04:44:35.892Z,91.80
2018-03-27T04:47:03.516Z,88.97
2018-03-27T04:49:31.902Z,86.37
2018-03-27T04:52:00.295Z,83.50
2018-03-27T04:54:27.933Z,105.10
2018-03-27T04:56:55.548Z,111.47
2018-03-27T04:59:23.175Z,111.77
2018-03-27T05:01:51.568Z,113.40
2018-03-27T05:04:19.964Z,117.23
2018-03-27T05:06:47.603Z,107.63
2018-03-27T05:09:15.227Z,135.00
2018-03-27T05:11:42.861Z,132.27
2018-03-27T05:14:10.481Z,118.90
2018-03-27T05:16:38.115Z,149.50
2018-03-27T05:19:05.744Z,137.07
2018-03-27T05:21:34.142Z,133.10
2018-03-27T05:24:01.775Z,158.37
2018-03-27T05:26:29.445Z,182.20
2018-03-27T05:28:57.069Z,187.63
2018-03-27T05:31:24.685Z,201.07
2018-03-27T05:33:53.080Z,185.07
2018-03-27T05:36:21.489Z,230.03
2018-03-27T05:38:49.100Z,213.73
2018-03-27T05:41:16.729Z,235.37
2018-03-27T05:43:44.368Z,235.33
2018-03-27T05:46:12.761Z,219.30
2018-03-27T05:48:40.388Z,236.37
2018-03-27T05:51:08.013Z,199.27
2018-03-27T05:53:35.640Z,209.70
2018-03-27T05:56:04.087Z,233.37
2018-03-27T05:58:31.664Z,223.13
2018-03-27T06:00:59.285Z,215.97
2018-03-27T06:03:26.924Z,216.53
2018-03-27T06:05:54.547Z,218.57
2018-03-27T06:08:22.191Z,228.13
2018-03-27T06:10:49.808Z,225.10
2018-03-27T06:13:17.433Z,233.77
2018-03-27T06:15:45.064Z,225.40
2018-03-27T06:18:12.693Z,223.87
2018-03-27T06:20:40.316Z,220.37
2018-03-27T06:23:07.954Z,214.17
2018-03-27T06:25:35.576Z,214.90
2018-03-27T06:28:03.210Z,216.60
2018-03-27T06:30:30.840Z,215.10
2018-03-27T06:32:59.233Z,195.93
2018-03-27T06:35:27.633Z,213.83
2018-03-27T06:37:55.274Z,220.60
2018-03-27T06:40:22.896Z,184.80
2018-03-27T06:42:50.526Z,179.70
2018-03-27T06:45:18.148Z,165.60
2018-03-27T06:47:45.794Z,155.27
2018-03-27T06:50:13.404Z,148.97
2018-03-27T06:52:41.030Z,131.03
2018-03-27T06:55:09.237Z,142.83
2018-03-27T06:57:39.670Z,111.43
2018-03-27T07:00:07.300Z,108.23
2018-03-27T07:02:34.966Z,103.43
2018-03-27T07:05:02.558Z,111.00
2018-03-27T07:07:30.176Z,104.80
2018-03-27T07:09:57.834Z,100.63
2018-03-27T07:12:26.202Z,99.13
2018-03-27T07:14:54.589Z,97.30
2018-03-27T07:17:22.216Z,93.43
2018-03-27T07:19:49.902Z,85.10
2018-03-27T07:22:17.486Z,100.60
2018-03-27T07:24:45.116Z,81.60
2018-03-27T07:27:12.769Z,81.50
2018-03-27T07:29:40.382Z,72.40
2018-03-27T07:32:08.009Z,58.80
2018-03-27T07:34:35.756Z,58.07
2018-03-27T07:37:03.378Z,57.73
2018-03-27T07:39:31.009Z,50.87
2018-03-27T07:41:58.638Z,50.70
2018-03-27T07:44:26.260Z,43.60
2018-03-27T07:46:53.884Z,44.73
2018-03-27T07:49:21.504Z,38.10
2018-03-27T07:51:49.144Z,40.17
2018-03-27T07:54:16.771Z,42.67
2018-03-27T07:56:44.384Z,38.97
2018-03-27T07:59:12.003Z,40.33
2018-03-27T08:01:39.636Z,39.90
2018-03-27T08:04:08.025Z,43.40
2018-03-27T08:06:36.411Z,41.47
2018-03-27T08:09:04.924Z,37.10
2018-03-27T08:11:32.540Z,38.43
2018-03-27T08:14:00.168Z,36.03
2018-03-27T08:16:27.788Z,46.83
2018-03-27T08:18:56.174Z,37.37
2018-03-27T08:21:24.563Z,34.17
2018-03-27T08:23:52.196Z,34.40
2018-03-27T08:26:19.808Z,30.27
2018-03-27T08:28:47.424Z,34.87
2018-03-27T08:31:15.084Z,35.53
2018-03-27T08:33:42.709Z,29.07
2018-03-27T08:36:10.340Z,32.20
2018-03-27T08:38:38.724Z,29.93
2018-03-27T08:41:07.124Z,27.23
2018-03-27T08:43:35.521Z,27.33
2018-03-27T08:46:03.133Z,25.07
2018-03-27T08:48:30.757Z,30.70
2018-03-27T08:50:58.368Z,22.17
2018-03-27T08:53:25.993Z,29.30
2018-03-27T08:55:53.616Z,22.70
2018-03-27T08:58:22.008Z,20.57
2018-03-27T09:00:50.433Z,24.57
2018-03-27T09:03:18.021Z,25.07
2018-03-27T09:05:45.649Z,18.57
2018-03-27T09:08:13.268Z,24.60
2018-03-27T09:10:40.896Z,17.20
2018-03-27T09:13:08.536Z,19.27
2018-03-27T09:15:36.923Z,20.93
2018-03-27T09:18:04.549Z,15.20
2018-03-27T09:20:32.176Z,14.70
2018-03-27T09:22:59.796Z,13.47
2018-03-27T09:25:28.197Z,15.53
2018-03-27T09:27:55.833Z,15.67
2018-03-27T09:30:23.448Z,14.93
2018-03-27T09:32:51.072Z,10.73
2018-03-27T09:35:18.710Z,14.10
2018-03-27T09:37:46.325Z,12.10
2018-03-27T09:40:14.721Z,13.77
2018-03-27T09:42:42.340Z,11.27
2018-03-27T09:45:09.961Z,11.23
2018-03-27T09:47:37.581Z,13.27
2018-03-27T09:50:05.204Z,9.20
2018-03-27T09:52:32.829Z,10.10
2018-03-27T09:55:00.465Z,10.50
2018-03-27T09:57:28.085Z,10.57
2018-03-27T09:59:55.709Z,11.50
2018-03-27T10:02:23.341Z,12.13
2018-03-27T10:04:50.964Z,11.03
2018-03-27T10:07:18.584Z,12.50
2018-03-27T10:09:47.100Z,10.63
2018-03-27T10:12:14.731Z,11.70
2018-03-27T10:14:42.373Z,13.37
2018-03-27T10:17:09.992Z,11.73
2018-03-27T10:19:37.628Z,12.17
2018-03-27T10:22:05.246Z,11.73
2018-03-27T10:24:33.635Z,16.17
2018-03-27T10:27:01.258Z,15.27
2018-03-27T10:29:28.880Z,13.60
2018-03-27T10:31:56.500Z,14.97
2018-03-27T10:34:24.177Z,12.93
2018-03-27T10:36:51.757Z,13.17
2018-03-27T10:39:20.144Z,15.53
2018-03-27T10:41:47.776Z,12.60
2018-03-27T10:44:15.404Z,12.67
2018-03-27T10:46:43.042Z,13.00
2018-03-27T10:49:10.688Z,13.87
2018-03-27T10:51:38.300Z,13.20
2018-03-27T10:54:05.920Z,15.47
2018-03-27T10:56:33.546Z,12.13
2018-03-27T10:59:01.167Z,14.17
2018-03-27T11:01:29.553Z,11.43
2018-03-27T11:03:57.284Z,14.97
2018-03-27T11:06:25.641Z,9.33
2018-03-27T11:08:53.303Z,11.30
2018-03-27T11:11:20.954Z,9.97
2018-03-27T11:13:48.618Z,11.10
2018-03-27T11:16:17.043Z,10.67
2018-03-27T11:18:44.685Z,13.10
2018-03-27T11:21:12.340Z,11.23
2018-03-27T11:23:40.008Z,14.23
2018-03-27T11:26:07.646Z,13.27
2018-03-27T11:28:36.077Z,11.60
2018-03-27T11:31:03.750Z,12.33
2018-03-27T11:33:31.403Z,13.10
2018-03-27T11:35:59.189Z,10.83
2018-03-27T11:38:26.826Z,12.17
2018-03-27T11:40:54.510Z,12.67
2018-03-27T11:43:22.175Z,13.03
2018-03-27T11:45:49.830Z,11.97
2018-03-27T11:48:17.575Z,14.10
2018-03-27T11:50:45.170Z,12.50
2018-03-27T11:53:12.815Z,13.43
2018-03-27T11:55:40.506Z,13.37
2018-03-27T11:58:08.153Z,12.27
2018-03-27T12:00:35.822Z,10.87
2018-03-27T12:03:03.495Z,14.97
2018-03-27T12:05:31.864Z,15.53
2018-03-27T12:07:59.566Z,12.20
2018-03-27T12:10:27.311Z,13.00
2018-03-27T12:12:54.952Z,14.03
2018-03-27T12:15:23.367Z,16.30
2018-03-27T12:17:50.999Z,13.27
2018-03-27T12:20:19.410Z,16.17
2018-03-27T12:22:47.035Z,16.07
2018-03-27T12:25:14.664Z,16.03
2018-03-27T12:27:42.293Z,18.33
2018-03-27T12:30:09.921Z,15.90
2018-03-27T12:32:37.549Z,16.13
2018-03-27T12:35:05.177Z,16.97
2018-03-27T12:37:33.573Z,16.93
2018-03-27T12:40:01.297Z,17.60
2018-03-27T12:42:28.935Z,15.47
2018-03-27T12:44:56.522Z,16.20
2018-03-27T12:47:24.144Z,13.83
2018-03-27T12:49:51.774Z,16.17
2018-03-27T12:52:19.401Z,16.40
2018-03-27T12:54:47.020Z,15.83
2018-03-27T12:57:15.420Z,22.07
2018-03-27T12:59:43.052Z,19.43
2018-03-27T13:02:11.603Z,16.00
2018-03-27T13:04:39.239Z,16.57
2018-03-27T13:07:06.868Z,15.20
2018-03-27T13:09:35.264Z,18.03
2018-03-27T13:12:02.898Z,16.40
2018-03-27T13:14:30.524Z,20.87
2018-03-27T13:16:58.157Z,20.10
2018-03-27T13:19:25.785Z,17.17
2018-03-27T13:21:53.415Z,19.93
2018-03-27T13:24:21.045Z,24.00
2018-03-27T13:26:48.685Z,20.37
2018-03-27T13:29:16.320Z,17.10
2018-03-27T13:31:43.948Z,20.40
2018-03-27T13:34:11.576Z,22.17
2018-03-27T13:36:39.200Z,21.30
2018-03-27T13:39:07.671Z,18.93
2018-03-27T13:41:35.235Z,18.23
2018-03-27T13:44:02.871Z,19.63
2018-03-27T13:46:30.497Z,20.50
2018-03-27T13:48:58.128Z,20.27
2018-03-27T13:51:27.261Z,20.47
2018-03-27T13:53:54.892Z,19.03
2018-03-27T13:56:22.524Z,20.53
2018-03-27T13:58:50.168Z,17.90
2018-03-27T14:01:17.794Z,17.33
2018-03-27T14:03:45.417Z,20.50
2018-03-27T14:06:13.059Z,17.90
2018-03-27T14:08:40.688Z,19.77
2018-03-27T14:11:08.315Z,18.87
2018-03-27T14:13:36.069Z,18.20
2018-03-27T14:16:03.684Z,21.67
2018-03-27T14:18:31.328Z,20.77
2018-03-27T14:20:58.972Z,19.77
2018-03-27T14:23:26.596Z,18.00
2018-03-27T14:25:54.266Z,20.70
2018-03-27T14:28:29.019Z,19.00
2018-03-27T14:30:56.639Z,20.40
2018-03-27T14:33:25.033Z,23.33
2018-03-27T14:35:52.669Z,19.13
2018-03-27T14:38:20.302Z,22.60
2018-03-27T14:40:47.929Z,25.60
2018-03-27T14:43:15.564Z,20.63
2018-03-27T14:45:43.179Z,21.67
2018-03-27T14:48:11.576Z,20.37
2018-03-27T14:50:39.960Z,24.57
2018-03-27T14:53:07.644Z,20.47
2018-03-27T14:55:35.238Z,23.67
2018-03-27T14:58:02.868Z,22.60
2018-03-27T15:00:30.488Z,23.63
2018-03-27T15:02:58.121Z,23.50
2018-03-27T15:05:25.749Z,25.50
2018-03-27T15:07:53.376Z,24.23
2018-03-27T15:10:21.004Z,26.03
2018-03-27T15:12:48.632Z,27.73
2018-03-27T15:15:16.266Z,26.43
2018-03-27T15:17:43.885Z,29.20
2018-03-27T15:20:19.407Z,29.53
2018-03-27T15:22:48.538Z,25.93
2018-03-27T15:25:16.360Z,26.93
2018-03-27T15:27:44.103Z,27.87
2018-03-27T15:30:12.937Z,28.10
2018-03-27T15:32:41.442Z,29.17
2018-03-27T15:35:10.200Z,29.10
2018-03-27T15:37:38.358Z,23.77
2018-03-27T15:40:06.076Z,27.37
2018-03-27T15:42:37.075Z,27.20
2018-03-27T15:45:04.910Z,29.27
2018-03-27T15:47:33.380Z,28.50
2018-03-27T15:50:03.176Z,27.20
2018-03-27T15:52:30.943Z,25.93
2018-03-27T15:54:58.744Z,30.17
2018-03-27T15:57:27.831Z,30.97
2018-03-27T15:59:56.619Z,28.93
2018-03-27T16:02:24.414Z,33.63
2018-03-27T16:04:52.144Z,28.77
2018-03-27T16:07:19.755Z,34.67
2018-03-27T16:09:47.377Z,31.50
2018-03-27T16:12:14.989Z,32.33
2018-03-27T16:14:42.612Z,30.43
2018-03-27T16:17:10.239Z,29.60
2018-03-27T16:19:37.857Z,33.70
2018-03-27T16:22:06.253Z,29.90
2018-03-27T16:24:33.872Z,31.10
2018-03-27T16:27:01.497Z,34.53
2018-03-27T16:29:29.121Z,34.27
2018-03-27T16:31:56.742Z,29.57
2018-03-27T16:34:24.364Z,28.37
2018-03-27T16:36:52.801Z,33.03
2018-03-27T16:39:20.422Z,33.73
2018-03-27T16:41:55.601Z,32.40
2018-03-27T16:44:23.232Z,32.93
2018-03-27T16:46:51.616Z,35.33
2018-03-27T16:49:19.231Z,30.77
2018-03-27T16:51:46.856Z,35.10
2018-03-27T16:54:14.488Z,35.50
2018-03-27T16:56:42.112Z,34.40
2018-03-27T16:59:09.733Z,32.90
2018-03-27T17:01:38.126Z,33.37
2018-03-27T17:04:05.758Z,32.10
2018-03-27T17:06:33.377Z,35.77
2018-03-27T17:09:00.993Z,33.20
2018-03-27T17:11:28.612Z,37.93
2018-03-27T17:13:56.242Z,36.00
2018-03-27T17:16:26.654Z,35.40
2018-03-27T17:18:54.273Z,34.67
2018-03-27T17:21:21.904Z,32.17
2018-03-27T17:23:50.305Z,31.37
2018-03-27T17:26:17.921Z,29.70
2018-03-27T17:28:45.548Z,33.37
2018-03-27T17:31:13.173Z,29.70
2018-03-27T17:33:40.798Z,38.17
2018-03-27T17:36:08.416Z,30.30
2018-03-27T17:38:36.804Z,33.63
2018-03-27T17:41:05.229Z,28.83
2018-03-27T17:43:32.840Z,29.90
2018-03-27T17:46:00.464Z,30.53
2018-03-27T17:48:28.093Z,30.53
2018-03-27T17:50:55.745Z,26.57
2018-03-27T17:53:30.733Z,28.37
2018-03-27T17:55:58.365Z,26.87
2018-03-27T17:58:25.988Z,29.17
2018-03-27T18:00:53.620Z,27.20
2018-03-27T18:03:21.236Z,24.67
2018-03-27T18:05:48.861Z,27.97
2018-03-27T18:08:16.481Z,25.90
2018-03-27T18:10:44.873Z,20.23
2018-03-27T18:13:12.501Z,19.20
2018-03-27T18:15:40.116Z,22.40
2018-03-27T18:18:07.741Z,18.90
2018-03-27T18:20:35.360Z,17.93
2018-03-27T18:23:02.981Z,19.53
2018-03-27T18:25:30.608Z,17.90
2018-03-27T18:27:58.239Z,12.37
2018-03-27T18:30:25.874Z,12.83
2018-03-27T18:32:53.493Z,11.77
2018-03-27T18:35:21.199Z,13.23
2018-03-27T18:37:48.904Z,13.80
2018-03-27T18:40:17.334Z,14.00
2018-03-27T18:42:44.991Z,11.80
2018-03-27T18:45:12.667Z,12.53
2018-03-27T18:47:40.318Z,14.90
2018-03-27T18:50:07.968Z,13.07
2018-03-27T18:52:35.635Z,13.60
2018-03-27T18:55:03.276Z,15.40
2018-03-27T18:57:32.618Z,14.30
2018-03-27T19:00:00.365Z,13.10
2018-03-27T19:02:27.995Z,14.23
2018-03-27T19:04:55.653Z,13.93
2018-03-27T19:07:23.286Z,14.43
2018-03-27T19:09:50.952Z,16.17
2018-03-27T19:12:18.603Z,15.43
2018-03-27T19:14:47.006Z,13.67
2018-03-27T19:17:21.071Z,15.17
2018-03-27T19:19:48.897Z,13.70
2018-03-27T19:22:16.545Z,14.53
2018-03-27T19:24:44.210Z,16.17
2018-03-27T19:27:11.863Z,15.40
2018-03-27T19:29:40.278Z,16.00
2018-03-27T19:32:07.924Z,20.30
2018-03-27T19:34:35.585Z,16.67
2018-03-27T19:37:03.292Z,16.20
2018-03-27T19:39:30.935Z,16.83
2018-03-27T19:42:04.217Z,15.37
2018-03-27T19:44:31.901Z,17.03
2018-03-27T19:46:59.556Z,18.03
2018-03-27T19:49:27.230Z,16.50
2018-03-27T19:51:54.937Z,16.97
2018-03-27T19:54:22.846Z,18.37
2018-03-27T19:56:51.263Z,20.63
2018-03-27T19:59:18.931Z,15.90
2018-03-27T20:01:46.581Z,17.77
2018-03-27T20:04:14.226Z,16.90
2018-03-27T20:06:41.911Z,19.47
2018-03-27T20:09:09.537Z,16.90
2018-03-27T20:11:37.194Z,17.23
2018-03-27T20:14:04.855Z,18.50
2018-03-27T20:16:32.518Z,17.70
2018-03-27T20:19:00.170Z,17.17
2018-03-27T20:21:27.863Z,16.73
2018-03-27T20:23:55.521Z,18.83
2018-03-27T20:26:23.199Z,19.53
2018-03-27T20:28:50.855Z,19.73
2018-03-27T20:31:18.498Z,17.97
2018-03-27T20:33:46.264Z,18.17
2018-03-27T20:36:13.916Z,19.23
2018-03-27T20:38:41.566Z,20.07
2018-03-27T20:41:09.246Z,20.47
2018-03-27T20:43:36.900Z,20.27
2018-03-27T20:46:05.291Z,23.37
2018-03-27T20:48:32.936Z,21.80
2018-03-27T20:51:01.333Z,21.60
2018-03-27T20:53:29.077Z,22.97
2018-03-27T20:55:57.548Z,23.53
2018-03-27T20:58:25.188Z,21.80
2018-03-27T21:00:52.846Z,27.20
2018-03-27T21:03:20.505Z,21.23
2018-03-27T21:05:48.178Z,27.30
2018-03-27T21:08:15.835Z,23.43
2018-03-27T21:10:43.470Z,21.50
2018-03-27T21:13:11.852Z,20.67
2018-03-27T21:15:40.258Z,19.37
2018-03-27T21:18:07.881Z,18.50
2018-03-27T21:20:52.445Z,22.57
2018-03-27T21:23:20.081Z,22.03
2018-03-27T21:25:47.700Z,22.90
2018-03-27T21:28:15.349Z,18.53
2018-03-27T21:30:43.733Z,17.63
2018-03-27T21:33:12.117Z,19.60
2018-03-27T21:35:40.507Z,19.77
2018-03-27T21:38:08.895Z,18.10
2018-03-27T21:40:36.524Z,19.07
2018-03-27T21:43:04.148Z,19.50
2018-03-27T21:45:31.768Z,17.40
2018-03-27T21:47:59.392Z,18.57
2018-03-27T21:50:27.014Z,20.90
2018-03-27T21:52:55.408Z,17.33
2018-03-27T21:55:23.033Z,19.37
2018-03-27T21:57:50.665Z,18.17
2018-03-27T22:00:21.745Z,19.00
2018-03-27T22:02:49.359Z,18.73
2018-03-27T22:05:16.985Z,18.07
2018-03-27T22:07:44.611Z,17.17
2018-03-27T22:10:12.224Z,17.87
2018-03-27T22:12:39.843Z,19.10
2018-03-27T22:15:07.469Z,21.87
2018-03-27T22:17:35.860Z,18.50
2018-03-27T22:20:04.245Z,20.20
2018-03-27T22:22:32.019Z,20.77
2018-03-27T22:25:00.388Z,20.70
2018-03-27T22:27:28.783Z,19.30
2018-03-27T22:29:56.420Z,21.00
2018-03-27T22:32:24.065Z,21.30
2018-03-27T22:34:51.677Z,22.27
2018-03-27T22:37:20.064Z,19.50
2018-03-27T22:39:47.897Z,20.27
2018-03-27T22:42:15.517Z,20.07
2018-03-27T22:44:43.142Z,17.73
2018-03-27T22:47:10.752Z,19.93
2018-03-27T22:49:38.373Z,17.07
2018-03-27T22:52:06.005Z,16.37
2018-03-27T22:54:33.628Z,15.40
2018-03-27T22:57:01.265Z,15.10
2018-03-27T22:59:28.880Z,15.50
2018-03-27T23:01:56.488Z,13.90
2018-03-27T23:04:24.104Z,15.53
2018-03-27T23:06:51.717Z,14.60
2018-03-27T23:09:19.337Z,14.73
2018-03-27T23:11:46.950Z,16.03
2018-03-27T23:14:14.569Z,16.37
2018-03-27T23:16:42.193Z,14.67
2018-03-27T23:19:09.808Z,14.40
2018-03-27T23:21:37.424Z,14.53
2018-03-27T23:24:05.052Z,17.40
2018-03-27T23:26:33.699Z,14.63
2018-03-27T23:29:02.089Z,19.27
2018-03-27T23:31:29.724Z,15.93
2018-03-27T23:33:57.344Z,18.37
2018-03-27T23:36:24.973Z,15.13
2018-03-27T23:38:53.373Z,13.87
2018-03-27T23:41:21.753Z,14.23
2018-03-27T23:43:49.389Z,16.10
2018-03-27T23:46:17.973Z,18.03
2018-03-27T23:48:45.756Z,16.00
2018-03-27T23:51:14.145Z,16.30
2018-03-27T23:53:42.532Z,21.03
2018-03-27T23:56:10.176Z,18.53
2018-03-27T23:58:37.793Z,21.73
